sensor_id;sensor_type;location;lat;lon;timestamp;P1;durP1;ratioP1;P2;durP2;ratioP2
7365;SDS011;3723;52.220;8.792;2022-09-21T00:00:31;5.60;;;1.37;;
7365;SDS011;3723;52.220;8.792;2022-09-21T00:02:57;5.80;;;1.40;;
7365;SDS011;3723;52.220;8.792;2022-09-21T00:05:24;6.90;;;1.40;;
7365;SDS011;3723;52.220;8.792;2022-09-21T00:07:53;5.40;;;1.10;;
7365;SDS011;3723;52.220;8.792;2022-09-21T00:10:20;6.30;;;1.27;;
7365;SDS011;3723;52.220;8.792;2022-09-21T00:12:47;6.47;;;1.40;;
7365;SDS011;3723;52.220;8.792;2022-09-21T00:15:15;7.20;;;1.87;;
7365;SDS011;3723;52.220;8.792;2022-09-21T00:17:42;6.70;;;1.40;;
7365;SDS011;3723;52.220;8.792;2022-09-21T00:20:10;6.30;;;1.73;;
7365;SDS011;3723;52.220;8.792;2022-09-21T00:22:37;7.33;;;1.70;;
7365;SDS011;3723;52.220;8.792;2022-09-21T00:25:07;6.00;;;1.30;;
7365;SDS011;3723;52.220;8.792;2022-09-21T00:27:34;6.47;;;1.50;;
7365;SDS011;3723;52.220;8.792;2022-09-21T00:30:02;6.93;;;1.80;;
7365;SDS011;3723;52.220;8.792;2022-09-21T00:32:31;10.50;;;1.90;;
7365;SDS011;3723;52.220;8.792;2022-09-21T00:35:00;5.60;;;1.50;;
7365;SDS011;3723;52.220;8.792;2022-09-21T00:37:27;7.50;;;1.60;;
7365;SDS011;3723;52.220;8.792;2022-09-21T00:39:54;6.30;;;2.03;;
7365;SDS011;3723;52.220;8.792;2022-09-21T00:42:23;6.17;;;1.50;;
7365;SDS011;3723;52.220;8.792;2022-09-21T00:44:52;7.03;;;2.07;;
7365;SDS011;3723;52.220;8.792;2022-09-21T00:47:20;5.97;;;1.53;;
7365;SDS011;3723;52.220;8.792;2022-09-21T00:49:50;6.50;;;1.30;;
7365;SDS011;3723;52.220;8.792;2022-09-21T00:52:20;6.67;;;1.13;;
7365;SDS011;3723;52.220;8.792;2022-09-21T00:54:50;6.50;;;1.30;;
7365;SDS011;3723;52.220;8.792;2022-09-21T00:57:19;6.40;;;1.90;;
7365;SDS011;3723;52.220;8.792;2022-09-21T00:59:51;6.70;;;1.47;;
7365;SDS011;3723;52.220;8.792;2022-09-21T01:02:21;5.97;;;1.43;;
7365;SDS011;3723;52.220;8.792;2022-09-21T01:04:48;5.73;;;1.30;;
7365;SDS011;3723;52.220;8.792;2022-09-21T01:07:19;6.30;;;1.57;;
7365;SDS011;3723;52.220;8.792;2022-09-21T01:09:51;7.30;;;1.53;;
7365;SDS011;3723;52.220;8.792;2022-09-21T01:12:24;5.30;;;1.20;;
7365;SDS011;3723;52.220;8.792;2022-09-21T01:15:10;6.20;;;1.30;;
7365;SDS011;3723;52.220;8.792;2022-09-21T01:17:45;6.50;;;1.47;;
7365;SDS011;3723;52.220;8.792;2022-09-21T01:20:25;5.90;;;1.60;;
7365;SDS011;3723;52.220;8.792;2022-09-21T01:23:14;6.00;;;1.10;;
7365;SDS011;3723;52.220;8.792;2022-09-21T01:28:57;6.37;;;1.60;;
7365;SDS011;3723;52.220;8.792;2022-09-21T01:31:39;30.53;;;2.80;;
7365;SDS011;3723;52.220;8.792;2022-09-21T01:34:13;7.03;;;1.50;;
7365;SDS011;3723;52.220;8.792;2022-09-21T01:36:46;5.50;;;1.20;;
7365;SDS011;3723;52.220;8.792;2022-09-21T01:39:15;6.53;;;1.27;;
7365;SDS011;3723;52.220;8.792;2022-09-21T01:41:44;5.43;;;1.20;;
7365;SDS011;3723;52.220;8.792;2022-09-21T01:44:16;6.63;;;1.63;;
7365;SDS011;3723;52.220;8.792;2022-09-21T01:46:46;6.83;;;1.13;;
7365;SDS011;3723;52.220;8.792;2022-09-21T01:49:17;6.73;;;1.50;;
7365;SDS011;3723;52.220;8.792;2022-09-21T01:51:49;6.17;;;1.40;;
7365;SDS011;3723;52.220;8.792;2022-09-21T01:54:23;7.07;;;2.00;;
7365;SDS011;3723;52.220;8.792;2022-09-21T01:56:57;6.27;;;1.40;;
7365;SDS011;3723;52.220;8.792;2022-09-21T01:59:31;6.80;;;1.17;;
7365;SDS011;3723;52.220;8.792;2022-09-21T02:02:08;5.43;;;1.07;;
7365;SDS011;3723;52.220;8.792;2022-09-21T02:04:39;6.00;;;1.50;;
7365;SDS011;3723;52.220;8.792;2022-09-21T02:07:07;6.20;;;1.63;;
7365;SDS011;3723;52.220;8.792;2022-09-21T02:09:35;6.77;;;1.93;;
7365;SDS011;3723;52.220;8.792;2022-09-21T02:12:03;5.30;;;1.40;;
7365;SDS011;3723;52.220;8.792;2022-09-21T02:14:31;5.40;;;1.00;;
7365;SDS011;3723;52.220;8.792;2022-09-21T02:17:03;6.13;;;1.30;;
7365;SDS011;3723;52.220;8.792;2022-09-21T02:19:43;6.37;;;1.50;;
7365;SDS011;3723;52.220;8.792;2022-09-21T02:22:14;6.17;;;1.30;;
7365;SDS011;3723;52.220;8.792;2022-09-21T02:24:45;7.13;;;1.73;;
7365;SDS011;3723;52.220;8.792;2022-09-21T02:27:17;6.40;;;1.63;;
7365;SDS011;3723;52.220;8.792;2022-09-21T02:29:56;6.10;;;1.60;;
7365;SDS011;3723;52.220;8.792;2022-09-21T02:32:32;5.87;;;1.40;;
7365;SDS011;3723;52.220;8.792;2022-09-21T02:35:05;6.00;;;1.30;;
7365;SDS011;3723;52.220;8.792;2022-09-21T02:37:39;9.57;;;2.80;;
7365;SDS011;3723;52.220;8.792;2022-09-21T02:40:12;7.10;;;1.30;;
7365;SDS011;3723;52.220;8.792;2022-09-21T02:42:51;8.20;;;2.37;;
7365;SDS011;3723;52.220;8.792;2022-09-21T02:45:24;6.13;;;1.73;;
7365;SDS011;3723;52.220;8.792;2022-09-21T02:47:55;6.23;;;1.60;;
7365;SDS011;3723;52.220;8.792;2022-09-21T02:50:32;7.50;;;1.53;;
7365;SDS011;3723;52.220;8.792;2022-09-21T02:53:04;5.47;;;1.17;;
7365;SDS011;3723;52.220;8.792;2022-09-21T02:55:34;7.57;;;2.17;;
7365;SDS011;3723;52.220;8.792;2022-09-21T02:58:02;5.00;;;1.00;;
7365;SDS011;3723;52.220;8.792;2022-09-21T03:00:33;5.20;;;0.97;;
7365;SDS011;3723;52.220;8.792;2022-09-21T03:03:03;5.30;;;1.17;;
7365;SDS011;3723;52.220;8.792;2022-09-21T03:05:41;5.73;;;1.70;;
7365;SDS011;3723;52.220;8.792;2022-09-21T03:08:08;6.40;;;1.10;;
7365;SDS011;3723;52.220;8.792;2022-09-21T03:10:35;6.40;;;1.67;;
7365;SDS011;3723;52.220;8.792;2022-09-21T03:13:04;6.20;;;1.80;;
7365;SDS011;3723;52.220;8.792;2022-09-21T03:15:31;8.70;;;1.77;;
7365;SDS011;3723;52.220;8.792;2022-09-21T03:18:00;6.70;;;1.53;;
7365;SDS011;3723;52.220;8.792;2022-09-21T03:20:29;6.80;;;1.20;;
7365;SDS011;3723;52.220;8.792;2022-09-21T03:22:58;5.10;;;0.90;;
7365;SDS011;3723;52.220;8.792;2022-09-21T03:25:25;7.10;;;1.80;;
7365;SDS011;3723;52.220;8.792;2022-09-21T03:27:52;6.20;;;1.03;;
7365;SDS011;3723;52.220;8.792;2022-09-21T03:30:19;5.23;;;1.10;;
7365;SDS011;3723;52.220;8.792;2022-09-21T03:32:47;6.10;;;1.53;;
7365;SDS011;3723;52.220;8.792;2022-09-21T03:35:16;5.53;;;1.23;;
7365;SDS011;3723;52.220;8.792;2022-09-21T03:37:44;6.20;;;1.93;;
7365;SDS011;3723;52.220;8.792;2022-09-21T03:40:11;7.33;;;1.10;;
7365;SDS011;3723;52.220;8.792;2022-09-21T03:42:38;5.30;;;1.27;;
7365;SDS011;3723;52.220;8.792;2022-09-21T03:45:07;5.13;;;1.33;;
7365;SDS011;3723;52.220;8.792;2022-09-21T03:47:35;5.90;;;1.10;;
7365;SDS011;3723;52.220;8.792;2022-09-21T03:50:03;6.40;;;1.77;;
7365;SDS011;3723;52.220;8.792;2022-09-21T03:52:32;5.50;;;1.20;;
7365;SDS011;3723;52.220;8.792;2022-09-21T03:55:00;5.10;;;0.90;;
7365;SDS011;3723;52.220;8.792;2022-09-21T03:57:29;6.43;;;1.27;;
7365;SDS011;3723;52.220;8.792;2022-09-21T03:59:55;5.43;;;1.23;;
7365;SDS011;3723;52.220;8.792;2022-09-21T04:02:22;7.13;;;1.20;;
7365;SDS011;3723;52.220;8.792;2022-09-21T04:04:49;5.53;;;1.10;;
7365;SDS011;3723;52.220;8.792;2022-09-21T04:07:16;6.23;;;1.80;;
7365;SDS011;3723;52.220;8.792;2022-09-21T04:09:44;6.07;;;1.23;;
7365;SDS011;3723;52.220;8.792;2022-09-21T04:12:11;5.83;;;1.20;;
7365;SDS011;3723;52.220;8.792;2022-09-21T04:14:38;5.57;;;1.23;;
7365;SDS011;3723;52.220;8.792;2022-09-21T04:17:05;7.43;;;1.57;;
7365;SDS011;3723;52.220;8.792;2022-09-21T04:19:32;5.40;;;1.30;;
7365;SDS011;3723;52.220;8.792;2022-09-21T04:21:58;5.70;;;1.23;;
7365;SDS011;3723;52.220;8.792;2022-09-21T04:24:25;5.90;;;1.50;;
7365;SDS011;3723;52.220;8.792;2022-09-21T04:26:53;6.00;;;1.60;;
7365;SDS011;3723;52.220;8.792;2022-09-21T04:29:20;7.40;;;1.40;;
7365;SDS011;3723;52.220;8.792;2022-09-21T04:31:47;6.07;;;0.97;;
7365;SDS011;3723;52.220;8.792;2022-09-21T04:34:14;5.97;;;1.10;;
7365;SDS011;3723;52.220;8.792;2022-09-21T04:36:41;5.00;;;0.90;;
7365;SDS011;3723;52.220;8.792;2022-09-21T04:39:07;5.80;;;1.40;;
7365;SDS011;3723;52.220;8.792;2022-09-21T04:41:34;6.37;;;1.23;;
7365;SDS011;3723;52.220;8.792;2022-09-21T04:44:02;6.10;;;1.40;;
7365;SDS011;3723;52.220;8.792;2022-09-21T04:46:29;5.97;;;1.50;;
7365;SDS011;3723;52.220;8.792;2022-09-21T04:48:56;5.67;;;1.30;;
7365;SDS011;3723;52.220;8.792;2022-09-21T04:51:23;6.40;;;1.10;;
7365;SDS011;3723;52.220;8.792;2022-09-21T04:53:50;5.93;;;1.20;;
7365;SDS011;3723;52.220;8.792;2022-09-21T04:56:16;5.60;;;1.40;;
7365;SDS011;3723;52.220;8.792;2022-09-21T04:58:43;5.53;;;1.33;;
7365;SDS011;3723;52.220;8.792;2022-09-21T05:01:12;5.57;;;1.10;;
7365;SDS011;3723;52.220;8.792;2022-09-21T05:03:39;6.10;;;1.40;;
7365;SDS011;3723;52.220;8.792;2022-09-21T05:06:06;7.13;;;2.10;;
7365;SDS011;3723;52.220;8.792;2022-09-21T05:08:33;9.60;;;1.53;;
7365;SDS011;3723;52.220;8.792;2022-09-21T05:11:15;5.40;;;0.90;;
7365;SDS011;3723;52.220;8.792;2022-09-21T05:13:43;8.07;;;1.73;;
7365;SDS011;3723;52.220;8.792;2022-09-21T05:16:12;5.27;;;1.20;;
7365;SDS011;3723;52.220;8.792;2022-09-21T05:18:39;4.97;;;1.10;;
7365;SDS011;3723;52.220;8.792;2022-09-21T05:21:06;6.83;;;1.20;;
7365;SDS011;3723;52.220;8.792;2022-09-21T05:23:33;5.63;;;1.30;;
7365;SDS011;3723;52.220;8.792;2022-09-21T05:25:59;5.70;;;1.50;;
7365;SDS011;3723;52.220;8.792;2022-09-21T05:28:27;5.30;;;1.10;;
7365;SDS011;3723;52.220;8.792;2022-09-21T05:30:56;6.37;;;1.80;;
7365;SDS011;3723;52.220;8.792;2022-09-21T05:33:29;15.20;;;4.30;;
7365;SDS011;3723;52.220;8.792;2022-09-21T05:35:59;6.60;;;1.30;;
7365;SDS011;3723;52.220;8.792;2022-09-21T05:38:35;6.00;;;1.80;;
7365;SDS011;3723;52.220;8.792;2022-09-21T05:41:13;7.50;;;2.00;;
7365;SDS011;3723;52.220;8.792;2022-09-21T05:43:44;6.50;;;1.70;;
7365;SDS011;3723;52.220;8.792;2022-09-21T05:46:16;8.00;;;2.67;;
7365;SDS011;3723;52.220;8.792;2022-09-21T05:48:51;8.60;;;2.10;;
7365;SDS011;3723;52.220;8.792;2022-09-21T05:51:27;7.70;;;1.80;;
7365;SDS011;3723;52.220;8.792;2022-09-21T05:54:01;5.67;;;1.27;;
7365;SDS011;3723;52.220;8.792;2022-09-21T05:56:42;5.00;;;1.00;;
7365;SDS011;3723;52.220;8.792;2022-09-21T05:59:30;9.00;;;2.60;;
7365;SDS011;3723;52.220;8.792;2022-09-21T06:02:12;9.10;;;2.17;;
7365;SDS011;3723;52.220;8.792;2022-09-21T06:04:56;8.07;;;3.53;;
7365;SDS011;3723;52.220;8.792;2022-09-21T06:07:34;11.90;;;2.73;;
7365;SDS011;3723;52.220;8.792;2022-09-21T06:10:03;9.17;;;1.37;;
7365;SDS011;3723;52.220;8.792;2022-09-21T06:12:32;7.23;;;2.10;;
7365;SDS011;3723;52.220;8.792;2022-09-21T06:15:00;9.53;;;2.80;;
7365;SDS011;3723;52.220;8.792;2022-09-21T06:17:35;7.10;;;1.60;;
7365;SDS011;3723;52.220;8.792;2022-09-21T06:20:12;6.20;;;1.90;;
7365;SDS011;3723;52.220;8.792;2022-09-21T06:22:40;10.53;;;2.27;;
7365;SDS011;3723;52.220;8.792;2022-09-21T06:25:09;14.10;;;2.70;;
7365;SDS011;3723;52.220;8.792;2022-09-21T06:27:39;13.47;;;2.73;;
7365;SDS011;3723;52.220;8.792;2022-09-21T06:30:08;11.63;;;3.73;;
7365;SDS011;3723;52.220;8.792;2022-09-21T06:32:46;8.67;;;2.97;;
7365;SDS011;3723;52.220;8.792;2022-09-21T06:35:17;8.53;;;1.70;;
7365;SDS011;3723;52.220;8.792;2022-09-21T06:37:43;7.10;;;2.40;;
7365;SDS011;3723;52.220;8.792;2022-09-21T06:40:10;11.10;;;2.73;;
7365;SDS011;3723;52.220;8.792;2022-09-21T06:42:38;8.53;;;2.70;;
7365;SDS011;3723;52.220;8.792;2022-09-21T06:45:07;6.47;;;1.90;;
7365;SDS011;3723;52.220;8.792;2022-09-21T06:47:36;7.50;;;1.80;;
7365;SDS011;3723;52.220;8.792;2022-09-21T06:50:03;10.80;;;3.40;;
7365;SDS011;3723;52.220;8.792;2022-09-21T06:52:31;12.73;;;3.23;;
7365;SDS011;3723;52.220;8.792;2022-09-21T06:54:59;7.40;;;2.00;;
7365;SDS011;3723;52.220;8.792;2022-09-21T06:57:26;9.87;;;2.37;;
7365;SDS011;3723;52.220;8.792;2022-09-21T06:59:53;9.47;;;2.00;;
7365;SDS011;3723;52.220;8.792;2022-09-21T07:02:21;10.30;;;2.27;;
7365;SDS011;3723;52.220;8.792;2022-09-21T07:04:48;8.27;;;2.60;;
7365;SDS011;3723;52.220;8.792;2022-09-21T07:07:15;6.60;;;1.23;;
7365;SDS011;3723;52.220;8.792;2022-09-21T07:09:44;9.30;;;2.57;;
7365;SDS011;3723;52.220;8.792;2022-09-21T07:12:12;7.87;;;2.30;;
7365;SDS011;3723;52.220;8.792;2022-09-21T07:14:43;8.50;;;2.20;;
7365;SDS011;3723;52.220;8.792;2022-09-21T07:17:10;8.27;;;1.93;;
7365;SDS011;3723;52.220;8.792;2022-09-21T07:19:40;6.80;;;2.03;;
7365;SDS011;3723;52.220;8.792;2022-09-21T07:22:10;8.17;;;2.00;;
7365;SDS011;3723;52.220;8.792;2022-09-21T07:24:37;13.67;;;2.40;;
7365;SDS011;3723;52.220;8.792;2022-09-21T07:27:06;10.33;;;2.60;;
7365;SDS011;3723;52.220;8.792;2022-09-21T07:29:34;7.77;;;1.53;;
7365;SDS011;3723;52.220;8.792;2022-09-21T07:32:03;28.97;;;3.93;;
7365;SDS011;3723;52.220;8.792;2022-09-21T07:34:34;8.20;;;1.90;;
7365;SDS011;3723;52.220;8.792;2022-09-21T07:37:02;9.37;;;2.60;;
7365;SDS011;3723;52.220;8.792;2022-09-21T07:39:31;6.83;;;2.30;;
7365;SDS011;3723;52.220;8.792;2022-09-21T07:42:03;6.10;;;1.33;;
7365;SDS011;3723;52.220;8.792;2022-09-21T07:44:32;7.60;;;1.80;;
7365;SDS011;3723;52.220;8.792;2022-09-21T07:47:00;6.80;;;1.93;;
7365;SDS011;3723;52.220;8.792;2022-09-21T07:49:27;6.60;;;1.40;;
7365;SDS011;3723;52.220;8.792;2022-09-21T07:51:55;5.97;;;1.33;;
7365;SDS011;3723;52.220;8.792;2022-09-21T07:54:22;5.60;;;1.13;;
7365;SDS011;3723;52.220;8.792;2022-09-21T07:56:49;8.00;;;1.63;;
7365;SDS011;3723;52.220;8.792;2022-09-21T07:59:32;5.93;;;1.30;;
7365;SDS011;3723;52.220;8.792;2022-09-21T08:02:03;12.40;;;2.47;;
7365;SDS011;3723;52.220;8.792;2022-09-21T08:04:30;7.60;;;1.60;;
7365;SDS011;3723;52.220;8.792;2022-09-21T08:06:57;8.77;;;2.00;;
7365;SDS011;3723;52.220;8.792;2022-09-21T08:09:24;6.03;;;1.60;;
7365;SDS011;3723;52.220;8.792;2022-09-21T08:11:56;7.70;;;2.50;;
7365;SDS011;3723;52.220;8.792;2022-09-21T08:14:23;9.63;;;2.20;;
7365;SDS011;3723;52.220;8.792;2022-09-21T08:17:08;7.57;;;1.87;;
7365;SDS011;3723;52.220;8.792;2022-09-21T08:19:42;6.87;;;1.70;;
7365;SDS011;3723;52.220;8.792;2022-09-21T08:22:16;5.27;;;1.07;;
7365;SDS011;3723;52.220;8.792;2022-09-21T08:24:51;6.03;;;1.33;;
7365;SDS011;3723;52.220;8.792;2022-09-21T08:27:32;8.23;;;2.50;;
7365;SDS011;3723;52.220;8.792;2022-09-21T08:30:12;6.00;;;1.23;;
7365;SDS011;3723;52.220;8.792;2022-09-21T08:32:49;7.70;;;1.70;;
7365;SDS011;3723;52.220;8.792;2022-09-21T08:35:25;7.83;;;1.60;;
7365;SDS011;3723;52.220;8.792;2022-09-21T08:37:52;10.40;;;3.27;;
7365;SDS011;3723;52.220;8.792;2022-09-21T08:40:20;6.20;;;1.30;;
7365;SDS011;3723;52.220;8.792;2022-09-21T08:42:51;6.93;;;1.83;;
7365;SDS011;3723;52.220;8.792;2022-09-21T08:45:25;7.00;;;2.13;;
7365;SDS011;3723;52.220;8.792;2022-09-21T08:48:09;7.20;;;1.70;;
7365;SDS011;3723;52.220;8.792;2022-09-21T08:50:43;7.00;;;1.90;;
7365;SDS011;3723;52.220;8.792;2022-09-21T08:53:15;8.90;;;2.60;;
7365;SDS011;3723;52.220;8.792;2022-09-21T08:55:45;7.70;;;2.30;;
7365;SDS011;3723;52.220;8.792;2022-09-21T08:58:18;7.90;;;1.80;;
7365;SDS011;3723;52.220;8.792;2022-09-21T09:00:55;8.00;;;2.47;;
7365;SDS011;3723;52.220;8.792;2022-09-21T09:03:47;6.60;;;1.93;;
7365;SDS011;3723;52.220;8.792;2022-09-21T09:06:25;7.40;;;2.20;;
7365;SDS011;3723;52.220;8.792;2022-09-21T09:09:04;7.20;;;1.77;;
7365;SDS011;3723;52.220;8.792;2022-09-21T09:11:49;7.47;;;1.40;;
7365;SDS011;3723;52.220;8.792;2022-09-21T09:14:34;7.70;;;2.43;;
7365;SDS011;3723;52.220;8.792;2022-09-21T09:17:26;9.30;;;2.97;;
7365;SDS011;3723;52.220;8.792;2022-09-21T09:20:04;8.03;;;2.53;;
7365;SDS011;3723;52.220;8.792;2022-09-21T09:22:44;7.27;;;2.17;;
7365;SDS011;3723;52.220;8.792;2022-09-21T09:25:30;7.20;;;1.83;;
7365;SDS011;3723;52.220;8.792;2022-09-21T09:28:09;8.37;;;2.30;;
7365;SDS011;3723;52.220;8.792;2022-09-21T09:30:50;7.43;;;2.47;;
7365;SDS011;3723;52.220;8.792;2022-09-21T09:33:30;7.50;;;1.90;;
7365;SDS011;3723;52.220;8.792;2022-09-21T09:36:12;7.43;;;2.07;;
7365;SDS011;3723;52.220;8.792;2022-09-21T09:38:41;7.60;;;1.60;;
7365;SDS011;3723;52.220;8.792;2022-09-21T09:41:19;9.30;;;3.30;;
7365;SDS011;3723;52.220;8.792;2022-09-21T09:44:03;7.67;;;1.87;;
7365;SDS011;3723;52.220;8.792;2022-09-21T09:46:50;7.90;;;2.70;;
7365;SDS011;3723;52.220;8.792;2022-09-21T09:49:27;7.53;;;1.30;;
7365;SDS011;3723;52.220;8.792;2022-09-21T09:52:11;5.87;;;1.03;;
7365;SDS011;3723;52.220;8.792;2022-09-21T09:54:43;7.77;;;2.60;;
7365;SDS011;3723;52.220;8.792;2022-09-21T09:57:12;9.50;;;2.17;;
7365;SDS011;3723;52.220;8.792;2022-09-21T09:59:42;7.90;;;1.90;;
7365;SDS011;3723;52.220;8.792;2022-09-21T10:02:18;8.00;;;2.13;;
7365;SDS011;3723;52.220;8.792;2022-09-21T10:04:54;7.80;;;2.00;;
7365;SDS011;3723;52.220;8.792;2022-09-21T10:07:36;8.30;;;2.43;;
7365;SDS011;3723;52.220;8.792;2022-09-21T10:13:10;7.53;;;1.77;;
7365;SDS011;3723;52.220;8.792;2022-09-21T10:18:36;7.03;;;1.43;;
7365;SDS011;3723;52.220;8.792;2022-09-21T10:26:21;9.03;;;2.30;;
7365;SDS011;3723;52.220;8.792;2022-09-21T10:28:58;8.10;;;1.90;;
7365;SDS011;3723;52.220;8.792;2022-09-21T10:35:00;6.60;;;1.50;;
7365;SDS011;3723;52.220;8.792;2022-09-21T10:37:46;9.10;;;2.80;;
7365;SDS011;3723;52.220;8.792;2022-09-21T10:40:51;7.67;;;1.80;;
7365;SDS011;3723;52.220;8.792;2022-09-21T10:43:32;12.00;;;1.90;;
7365;SDS011;3723;52.220;8.792;2022-09-21T10:46:11;6.47;;;1.37;;
7365;SDS011;3723;52.220;8.792;2022-09-21T10:49:10;6.70;;;1.47;;
7365;SDS011;3723;52.220;8.792;2022-09-21T10:51:45;7.43;;;1.30;;
7365;SDS011;3723;52.220;8.792;2022-09-21T10:54:16;6.70;;;1.53;;
7365;SDS011;3723;52.220;8.792;2022-09-21T10:56:55;6.70;;;0.80;;
7365;SDS011;3723;52.220;8.792;2022-09-21T10:59:26;7.77;;;1.10;;
7365;SDS011;3723;52.220;8.792;2022-09-21T11:05:14;9.17;;;1.40;;
7365;SDS011;3723;52.220;8.792;2022-09-21T11:07:46;8.30;;;0.90;;
7365;SDS011;3723;52.220;8.792;2022-09-21T11:10:19;9.67;;;1.37;;
7365;SDS011;3723;52.220;8.792;2022-09-21T11:13:08;10.60;;;1.67;;
7365;SDS011;3723;52.220;8.792;2022-09-21T11:15:58;6.50;;;0.80;;
7365;SDS011;3723;52.220;8.792;2022-09-21T11:18:54;15.33;;;1.87;;
7365;SDS011;3723;52.220;8.792;2022-09-21T11:21:38;8.07;;;1.17;;
7365;SDS011;3723;52.220;8.792;2022-09-21T11:24:21;7.40;;;0.70;;
7365;SDS011;3723;52.220;8.792;2022-09-21T11:27:01;6.80;;;0.70;;
7365;SDS011;3723;52.220;8.792;2022-09-21T11:32:34;5.30;;;0.70;;
7365;SDS011;3723;52.220;8.792;2022-09-21T11:38:29;5.53;;;0.70;;
7365;SDS011;3723;52.220;8.792;2022-09-21T11:41:08;5.60;;;0.60;;
7365;SDS011;3723;52.220;8.792;2022-09-21T11:44:01;5.80;;;0.60;;
7365;SDS011;3723;52.220;8.792;2022-09-21T11:46:39;7.83;;;0.70;;
7365;SDS011;3723;52.220;8.792;2022-09-21T11:49:16;5.67;;;0.70;;
7365;SDS011;3723;52.220;8.792;2022-09-21T11:52:16;6.27;;;1.10;;
7365;SDS011;3723;52.220;8.792;2022-09-21T11:57:48;5.30;;;0.60;;
7365;SDS011;3723;52.220;8.792;2022-09-21T12:00:21;9.13;;;0.67;;
7365;SDS011;3723;52.220;8.792;2022-09-21T12:03:03;5.17;;;0.60;;
7365;SDS011;3723;52.220;8.792;2022-09-21T12:05:55;6.03;;;0.67;;
7365;SDS011;3723;52.220;8.792;2022-09-21T12:08:35;7.40;;;0.70;;
7365;SDS011;3723;52.220;8.792;2022-09-21T12:11:45;5.80;;;0.63;;
7365;SDS011;3723;52.220;8.792;2022-09-21T12:14:21;7.70;;;0.70;;
7365;SDS011;3723;52.220;8.792;2022-09-21T12:16:57;5.40;;;0.70;;
7365;SDS011;3723;52.220;8.792;2022-09-21T12:19:33;5.10;;;0.60;;
7365;SDS011;3723;52.220;8.792;2022-09-21T12:22:12;5.73;;;0.97;;
7365;SDS011;3723;52.220;8.792;2022-09-21T12:24:44;5.20;;;0.50;;
7365;SDS011;3723;52.220;8.792;2022-09-21T12:27:20;5.30;;;0.63;;
7365;SDS011;3723;52.220;8.792;2022-09-21T12:29:54;5.30;;;0.70;;
7365;SDS011;3723;52.220;8.792;2022-09-21T12:32:35;7.17;;;1.03;;
7365;SDS011;3723;52.220;8.792;2022-09-21T12:35:23;5.97;;;0.73;;
7365;SDS011;3723;52.220;8.792;2022-09-21T12:37:59;5.00;;;0.60;;
7365;SDS011;3723;52.220;8.792;2022-09-21T12:40:32;7.27;;;1.43;;
7365;SDS011;3723;52.220;8.792;2022-09-21T12:43:06;5.60;;;0.57;;
7365;SDS011;3723;52.220;8.792;2022-09-21T12:45:45;5.10;;;0.60;;
7365;SDS011;3723;52.220;8.792;2022-09-21T12:51:15;5.93;;;0.60;;
7365;SDS011;3723;52.220;8.792;2022-09-21T12:53:51;5.97;;;0.60;;
7365;SDS011;3723;52.220;8.792;2022-09-21T12:56:22;7.43;;;0.80;;
7365;SDS011;3723;52.220;8.792;2022-09-21T12:58:56;5.90;;;0.60;;
7365;SDS011;3723;52.220;8.792;2022-09-21T13:01:29;5.50;;;0.77;;
7365;SDS011;3723;52.220;8.792;2022-09-21T13:04:02;6.33;;;0.60;;
7365;SDS011;3723;52.220;8.792;2022-09-21T13:15:59;6.27;;;1.17;;
7365;SDS011;3723;52.220;8.792;2022-09-21T13:18:40;5.97;;;0.77;;
7365;SDS011;3723;52.220;8.792;2022-09-21T13:21:14;5.63;;;0.60;;
7365;SDS011;3723;52.220;8.792;2022-09-21T13:23:42;5.00;;;0.50;;
7365;SDS011;3723;52.220;8.792;2022-09-21T13:26:11;5.50;;;0.73;;
7365;SDS011;3723;52.220;8.792;2022-09-21T13:31:38;4.83;;;0.50;;
7365;SDS011;3723;52.220;8.792;2022-09-21T13:34:21;6.77;;;0.70;;
7365;SDS011;3723;52.220;8.792;2022-09-21T13:43:23;9.90;;;1.10;;
7365;SDS011;3723;52.220;8.792;2022-09-21T13:52:55;5.80;;;0.60;;
7365;SDS011;3723;52.220;8.792;2022-09-21T13:56:00;5.20;;;0.53;;
7365;SDS011;3723;52.220;8.792;2022-09-21T13:59:03;6.80;;;0.60;;
7365;SDS011;3723;52.220;8.792;2022-09-21T14:02:42;5.17;;;0.53;;
7365;SDS011;3723;52.220;8.792;2022-09-21T14:06:08;5.43;;;0.70;;
7365;SDS011;3723;52.220;8.792;2022-09-21T14:09:18;5.03;;;0.60;;
7365;SDS011;3723;52.220;8.792;2022-09-21T14:12:16;7.03;;;1.40;;
7365;SDS011;3723;52.220;8.792;2022-09-21T14:15:06;6.07;;;0.60;;
7365;SDS011;3723;52.220;8.792;2022-09-21T14:30:18;6.17;;;0.60;;
7365;SDS011;3723;52.220;8.792;2022-09-21T14:33:04;6.50;;;0.60;;
7365;SDS011;3723;52.220;8.792;2022-09-21T14:39:05;6.13;;;0.63;;
7365;SDS011;3723;52.220;8.792;2022-09-21T14:42:22;5.60;;;0.60;;
7365;SDS011;3723;52.220;8.792;2022-09-21T14:45:03;6.07;;;0.77;;
7365;SDS011;3723;52.220;8.792;2022-09-21T14:47:45;6.60;;;0.80;;
7365;SDS011;3723;52.220;8.792;2022-09-21T14:50:38;5.50;;;0.63;;
7365;SDS011;3723;52.220;8.792;2022-09-21T14:53:34;5.60;;;0.60;;
7365;SDS011;3723;52.220;8.792;2022-09-21T14:59:59;5.40;;;0.60;;
7365;SDS011;3723;52.220;8.792;2022-09-21T15:02:58;5.30;;;0.50;;
7365;SDS011;3723;52.220;8.792;2022-09-21T15:06:21;6.07;;;1.13;;
7365;SDS011;3723;52.220;8.792;2022-09-21T15:12:53;5.63;;;0.70;;
7365;SDS011;3723;52.220;8.792;2022-09-21T15:15:49;5.10;;;0.60;;
7365;SDS011;3723;52.220;8.792;2022-09-21T15:18:47;5.30;;;0.60;;
7365;SDS011;3723;52.220;8.792;2022-09-21T15:21:32;5.20;;;0.60;;
7365;SDS011;3723;52.220;8.792;2022-09-21T15:24:18;10.10;;;2.50;;
7365;SDS011;3723;52.220;8.792;2022-09-21T15:27:00;8.93;;;2.50;;
7365;SDS011;3723;52.220;8.792;2022-09-21T15:29:41;7.20;;;1.57;;
7365;SDS011;3723;52.220;8.792;2022-09-21T15:32:27;5.40;;;0.80;;
7365;SDS011;3723;52.220;8.792;2022-09-21T15:35:15;8.53;;;1.53;;
7365;SDS011;3723;52.220;8.792;2022-09-21T15:38:01;5.00;;;0.50;;
7365;SDS011;3723;52.220;8.792;2022-09-21T15:41:09;7.53;;;1.00;;
7365;SDS011;3723;52.220;8.792;2022-09-21T15:44:30;6.13;;;1.00;;
7365;SDS011;3723;52.220;8.792;2022-09-21T15:47:02;5.30;;;0.63;;
7365;SDS011;3723;52.220;8.792;2022-09-21T15:49:36;5.10;;;0.60;;
7365;SDS011;3723;52.220;8.792;2022-09-21T15:52:18;5.70;;;0.70;;
7365;SDS011;3723;52.220;8.792;2022-09-21T15:54:54;5.07;;;0.60;;
7365;SDS011;3723;52.220;8.792;2022-09-21T15:57:29;5.77;;;1.17;;
7365;SDS011;3723;52.220;8.792;2022-09-21T16:02:59;5.73;;;0.70;;
7365;SDS011;3723;52.220;8.792;2022-09-21T16:05:45;5.10;;;0.73;;
7365;SDS011;3723;52.220;8.792;2022-09-21T16:08:25;5.40;;;0.77;;
7365;SDS011;3723;52.220;8.792;2022-09-21T16:11:10;7.57;;;0.63;;
7365;SDS011;3723;52.220;8.792;2022-09-21T16:13:45;5.00;;;0.60;;
7365;SDS011;3723;52.220;8.792;2022-09-21T16:17:04;5.17;;;0.60;;
7365;SDS011;3723;52.220;8.792;2022-09-21T16:22:47;6.30;;;0.60;;
7365;SDS011;3723;52.220;8.792;2022-09-21T16:25:24;5.50;;;0.60;;
7365;SDS011;3723;52.220;8.792;2022-09-21T16:28:06;4.97;;;0.50;;
7365;SDS011;3723;52.220;8.792;2022-09-21T16:34:00;5.47;;;1.00;;
7365;SDS011;3723;52.220;8.792;2022-09-21T16:36:39;5.47;;;0.87;;
7365;SDS011;3723;52.220;8.792;2022-09-21T16:39:18;5.20;;;0.70;;
7365;SDS011;3723;52.220;8.792;2022-09-21T16:41:55;5.60;;;0.70;;
7365;SDS011;3723;52.220;8.792;2022-09-21T16:44:35;5.10;;;0.70;;
7365;SDS011;3723;52.220;8.792;2022-09-21T16:47:31;5.03;;;0.70;;
7365;SDS011;3723;52.220;8.792;2022-09-21T16:51:07;5.50;;;0.77;;
7365;SDS011;3723;52.220;8.792;2022-09-21T16:54:02;5.30;;;0.70;;
7365;SDS011;3723;52.220;8.792;2022-09-21T16:56:51;7.53;;;1.00;;
7365;SDS011;3723;52.220;8.792;2022-09-21T16:59:47;6.37;;;0.93;;
7365;SDS011;3723;52.220;8.792;2022-09-21T17:02:49;5.07;;;0.90;;
7365;SDS011;3723;52.220;8.792;2022-09-21T17:05:46;5.37;;;0.80;;
7365;SDS011;3723;52.220;8.792;2022-09-21T17:11:32;5.97;;;0.67;;
7365;SDS011;3723;52.220;8.792;2022-09-21T17:14:31;5.63;;;0.80;;
7365;SDS011;3723;52.220;8.792;2022-09-21T17:18:08;9.53;;;0.80;;
7365;SDS011;3723;52.220;8.792;2022-09-21T17:21:06;5.33;;;0.80;;
7365;SDS011;3723;52.220;8.792;2022-09-21T17:23:54;6.60;;;0.80;;
7365;SDS011;3723;52.220;8.792;2022-09-21T17:26:41;5.60;;;0.77;;
7365;SDS011;3723;52.220;8.792;2022-09-21T17:29:29;6.27;;;0.77;;
7365;SDS011;3723;52.220;8.792;2022-09-21T18:29:52;5.60;;;1.00;;
7365;SDS011;3723;52.220;8.792;2022-09-21T18:32:25;10.63;;;1.07;;
7365;SDS011;3723;52.220;8.792;2022-09-21T18:35:05;5.20;;;0.90;;
7365;SDS011;3723;52.220;8.792;2022-09-21T18:37:43;7.43;;;1.03;;
7365;SDS011;3723;52.220;8.792;2022-09-21T18:40:21;5.00;;;0.90;;
7365;SDS011;3723;52.220;8.792;2022-09-21T18:42:55;6.57;;;1.00;;